Aeroporto :
LOGIN :

Iscrizione | Disclaimer

   EN    FR    IT 

 










Sommario :    VFR   VFR Marginale   IFR   IFR Intensivo   IFR Molto Intensivo
Visibilità : 
Base nubi : 
>= 8 km
>= 3000ft
5 / 8 km
1000 / 3000 ft
1500m / 5 km
500 / 1000 ft
800 / 1500m
200 / 500 ft
< 800m
< 200 ft
Simboli :   Temporali  Nebbia  Neve Forte  Precipitazioni Forti  Vento > 20 kt
SIGMETs :   Varie  Temporali  Ghiacco  Turbolenza  Onda orograficha  Ceneri Vulcaniche






- Altitudine del aeroporto : 80 ft
- Codice IATA : LPL


EGGP - Liverpool John Lennon

ULTIMO METAR :
  • 121850Z 32012KT 9999 VCSH FEW026 SCT033 09/06 Q0999

METARs OBSOLETI :
  • 121820Z 33010KT 9999 -SHRA FEW026 SCT033 10/05 Q0999
  • 121750Z 33010KT 9999 -SHRA FEW026 SCT033 09/05 Q0998
  • 121720Z 32012KT 9999 VCSH SCT024 BKN029 10/05 Q0998
  • 121650Z 33014KT 300V010 9999 VCSH SCT024 SCT030 09/06 Q0997
  • 121620Z 33011KT 9999 VCSH FEW021 BKN023 BKN033 10/06 Q0997
  • 121550Z 33013G23KT 9999 VCSH FEW021 BKN025 BKN030 10/06 Q0996

TAF TAF EGGP
Valido dal 12 a 18 ore il 13 a 18 ore UTC


121705Z 1218/1318 33014KT 9999 FEW020 SCT030
BECMG 1223/1301 VRB03KT
PROB40
TEMPO 1303/1309 7000 SHRA BKN014
BECMG 1315/1318 10010KT
ATIS : +44 151 907 2000 (option 5 or ext 5150)
Met : +44 871 750 5150



MetMap, La meteo Aeronautica in un colpo d'occhio ! - Copyright ORBIFLY Dicembre 2007 - Disclaimer

ORBIFLY MET'MAP TEAM :

Programmazione e sviluppo : Alexandra Zaïnal
Concezione e sviluppo : Baudouin d'Aumeries
Co-Programmazione e sviluppo : Marc-Olivier Méhu
Supporto tecnico e logistico : Manuel Goepfert
Aiuto per la traduzione : Arnaldo La Scala

Contatto : metmap@orbifly.com




FONTI E CREDITI :

   NOAA